createdAt,value
2023-09-30T00:00:09.894Z,20.56
2023-09-30T00:02:40.118Z,20.49
2023-09-30T00:05:07.853Z,20.55
2023-09-30T00:07:34.734Z,20.57
2023-09-30T00:10:01.809Z,20.61
2023-09-30T00:12:28.767Z,20.58
2023-09-30T00:14:55.818Z,20.57
2023-09-30T00:17:22.524Z,20.55
2023-09-30T00:19:49.589Z,20.61
2023-09-30T00:22:16.572Z,20.55
2023-09-30T00:24:43.384Z,20.51
2023-09-30T00:27:10.210Z,20.57
2023-09-30T00:29:36.992Z,20.64
2023-09-30T00:32:04.315Z,20.48
2023-09-30T00:34:37.627Z,20.43
2023-09-30T00:37:05.273Z,20.50
2023-09-30T00:39:34.106Z,20.62
2023-09-30T00:42:01.048Z,20.60
2023-09-30T00:44:29.116Z,20.61
2023-09-30T00:46:56.654Z,20.54
2023-09-30T00:49:27.308Z,20.53
2023-09-30T00:51:55.478Z,20.16
2023-09-30T00:54:25.585Z,20.15
2023-09-30T00:56:56.739Z,20.14
2023-09-30T00:59:24.267Z,20.18
2023-09-30T01:01:51.036Z,20.21
2023-09-30T01:04:19.211Z,20.21
2023-09-30T01:06:46.187Z,20.09
2023-09-30T01:09:14.087Z,20.08
2023-09-30T01:11:45.471Z,20.07
2023-09-30T01:14:28.633Z,20.09
2023-09-30T01:16:56.124Z,20.08
2023-09-30T01:19:25.212Z,20.07
2023-09-30T01:21:55.866Z,19.96
2023-09-30T01:24:22.909Z,19.97
2023-09-30T01:26:49.730Z,19.91
2023-09-30T01:29:16.611Z,19.80
2023-09-30T01:31:43.602Z,19.81
2023-09-30T01:34:11.824Z,19.77
2023-09-30T01:36:38.545Z,19.76
2023-09-30T01:39:05.522Z,19.71
2023-09-30T01:41:32.284Z,19.66
2023-09-30T01:43:59.174Z,19.61
2023-09-30T01:46:26.982Z,19.50
2023-09-30T01:48:53.693Z,19.43
2023-09-30T01:51:20.412Z,19.34
2023-09-30T01:53:47.172Z,19.31
2023-09-30T01:56:13.827Z,19.25
2023-09-30T01:58:40.574Z,19.32
2023-09-30T02:01:07.444Z,19.20
2023-09-30T02:03:34.274Z,19.21
2023-09-30T02:06:01.153Z,19.26
2023-09-30T02:08:27.836Z,19.12
2023-09-30T02:10:54.853Z,19.08
2023-09-30T02:13:21.589Z,18.96
2023-09-30T02:15:48.438Z,18.98
2023-09-30T02:18:15.899Z,18.91
2023-09-30T02:20:42.667Z,18.93
2023-09-30T02:23:12.592Z,18.94
2023-09-30T02:25:39.955Z,18.86
2023-09-30T02:28:07.646Z,18.94
2023-09-30T02:30:34.363Z,19.00
2023-09-30T02:33:01.558Z,18.94
2023-09-30T02:35:28.348Z,18.78
2023-09-30T02:37:55.230Z,18.82
2023-09-30T02:40:21.937Z,18.80
2023-09-30T02:42:49.975Z,18.70
2023-09-30T02:45:18.569Z,18.69
2023-09-30T02:47:45.715Z,18.52
2023-09-30T02:50:13.054Z,18.53
2023-09-30T02:52:42.998Z,18.44
2023-09-30T02:55:11.028Z,18.48
2023-09-30T02:57:38.565Z,18.52
2023-09-30T03:00:24.958Z,18.55
2023-09-30T03:02:54.460Z,18.55
2023-09-30T03:05:21.757Z,18.51
2023-09-30T03:07:49.262Z,18.44
2023-09-30T03:10:21.253Z,18.33
2023-09-30T03:12:49.060Z,18.34
2023-09-30T03:15:16.691Z,18.28
2023-09-30T03:17:44.346Z,18.24
2023-09-30T03:20:15.678Z,18.22
2023-09-30T03:22:43.866Z,18.10
2023-09-30T03:25:12.613Z,17.98
2023-09-30T03:27:40.044Z,17.99
2023-09-30T03:30:07.995Z,17.97
2023-09-30T03:32:35.031Z,18.02
2023-09-30T03:35:02.036Z,18.01
2023-09-30T03:37:29.228Z,17.92
2023-09-30T03:39:56.251Z,17.86
2023-09-30T03:42:23.372Z,17.97
2023-09-30T03:44:50.129Z,17.94
2023-09-30T03:47:17.490Z,17.99
2023-09-30T03:49:44.367Z,17.90
2023-09-30T03:52:15.746Z,17.83
2023-09-30T03:54:43.013Z,17.74
2023-09-30T03:57:09.775Z,17.63
2023-09-30T03:59:36.490Z,17.67
2023-09-30T04:02:03.199Z,17.66
2023-09-30T04:04:30.060Z,17.62
2023-09-30T04:06:56.848Z,17.63
2023-09-30T04:09:23.597Z,17.53
2023-09-30T04:11:50.462Z,17.51
2023-09-30T04:14:18.347Z,17.56
2023-09-30T04:16:45.915Z,17.50
2023-09-30T04:19:12.853Z,17.49
2023-09-30T04:21:40.073Z,17.51
2023-09-30T04:24:08.015Z,17.50
2023-09-30T04:26:34.766Z,17.54
2023-09-30T04:29:02.378Z,17.55
2023-09-30T04:31:30.230Z,17.67
2023-09-30T04:33:59.136Z,17.60
2023-09-30T04:36:26.123Z,17.68
2023-09-30T04:38:52.828Z,17.81
2023-09-30T04:41:20.188Z,17.79
2023-09-30T04:43:47.376Z,17.75
2023-09-30T04:46:14.739Z,17.63
2023-09-30T04:48:42.424Z,17.75
2023-09-30T04:51:10.655Z,17.79
2023-09-30T04:53:38.893Z,17.90
2023-09-30T04:56:05.882Z,17.75
2023-09-30T04:58:32.570Z,17.87
2023-09-30T05:00:59.682Z,17.88
2023-09-30T05:03:26.906Z,17.84
2023-09-30T05:05:57.877Z,17.67
2023-09-30T05:08:25.481Z,17.60
2023-09-30T05:10:56.370Z,17.58
2023-09-30T05:13:24.501Z,17.50
2023-09-30T05:15:55.055Z,17.46
2023-09-30T05:18:21.919Z,17.47
2023-09-30T05:20:50.495Z,17.47
2023-09-30T05:23:18.616Z,17.63
2023-09-30T05:25:45.425Z,17.63
2023-09-30T05:28:12.734Z,17.58
2023-09-30T05:30:40.399Z,17.58
2023-09-30T05:33:07.925Z,17.71
2023-09-30T05:35:34.689Z,17.83
2023-09-30T05:38:01.629Z,17.81
2023-09-30T05:40:31.309Z,17.95
2023-09-30T05:43:00.086Z,18.06
2023-09-30T05:45:28.992Z,18.19
2023-09-30T05:47:58.187Z,18.30
2023-09-30T05:50:26.465Z,18.43
2023-09-30T05:52:54.897Z,18.47
2023-09-30T05:55:23.067Z,18.44
2023-09-30T05:57:51.010Z,18.37
2023-09-30T06:00:21.940Z,18.38
2023-09-30T06:02:49.753Z,18.39
2023-09-30T06:05:27.592Z,18.40
2023-09-30T06:07:55.311Z,18.43
2023-09-30T06:10:22.556Z,18.60
2023-09-30T06:12:56.019Z,18.63
2023-09-30T06:15:27.069Z,18.80
2023-09-30T06:17:55.332Z,18.69
2023-09-30T06:20:23.665Z,18.80
2023-09-30T06:22:50.830Z,18.58
2023-09-30T06:25:18.923Z,18.56
2023-09-30T06:27:47.112Z,18.49
2023-09-30T06:30:17.034Z,18.60
2023-09-30T06:32:44.936Z,18.80
2023-09-30T06:35:12.068Z,18.71
2023-09-30T06:37:40.249Z,18.94
2023-09-30T06:40:09.510Z,18.86
2023-09-30T06:42:38.168Z,19.08
2023-09-30T06:45:08.575Z,19.24
2023-09-30T06:47:37.468Z,19.24
2023-09-30T06:50:17.353Z,19.45
2023-09-30T06:52:46.586Z,19.39
2023-09-30T06:55:17.794Z,19.65
2023-09-30T06:57:44.969Z,20.06
2023-09-30T07:00:14.242Z,20.70
2023-09-30T07:02:42.269Z,20.84
2023-09-30T07:05:13.737Z,20.91
2023-09-30T07:07:41.962Z,21.20
2023-09-30T07:10:09.319Z,21.48
2023-09-30T07:12:37.438Z,21.74
2023-09-30T07:15:05.937Z,21.97
2023-09-30T07:17:35.137Z,22.47
2023-09-30T07:20:06.170Z,22.91
2023-09-30T07:22:46.113Z,23.32
2023-09-30T07:25:19.746Z,23.87
2023-09-30T07:27:47.119Z,24.44
2023-09-30T07:30:16.747Z,25.27
2023-09-30T07:32:44.908Z,25.31
2023-09-30T07:35:13.046Z,25.95
2023-09-30T07:37:39.841Z,26.55
2023-09-30T07:40:07.555Z,27.36
2023-09-30T07:42:34.747Z,28.01
2023-09-30T07:45:02.173Z,29.05
2023-09-30T07:47:28.885Z,30.17
2023-09-30T07:49:55.797Z,31.55
2023-09-30T07:52:22.422Z,32.11
2023-09-30T07:54:49.194Z,33.55
2023-09-30T07:57:15.883Z,33.47
2023-09-30T07:59:42.744Z,33.92
2023-09-30T08:02:09.756Z,34.50
2023-09-30T08:04:36.964Z,34.76
2023-09-30T08:07:04.119Z,35.02
2023-09-30T08:09:31.005Z,36.26
2023-09-30T08:11:58.026Z,37.38
2023-09-30T08:14:24.878Z,38.32
2023-09-30T08:16:51.873Z,38.72
2023-09-30T08:19:18.565Z,39.26
2023-09-30T08:21:46.262Z,39.97
2023-09-30T08:24:13.027Z,40.31
2023-09-30T08:26:39.824Z,40.82
2023-09-30T08:29:07.506Z,40.79
2023-09-30T08:31:34.484Z,40.84
2023-09-30T08:34:01.528Z,40.45
2023-09-30T08:36:28.285Z,40.73
2023-09-30T08:38:55.211Z,40.92
2023-09-30T08:41:40.047Z,41.62
2023-09-30T08:44:06.883Z,41.54
2023-09-30T08:46:35.928Z,40.49
2023-09-30T08:49:04.499Z,41.24
2023-09-30T08:51:32.737Z,40.95
2023-09-30T08:54:02.147Z,40.78
2023-09-30T08:56:30.235Z,40.90
2023-09-30T08:59:01.801Z,41.23
2023-09-30T09:01:29.419Z,42.09
2023-09-30T09:03:57.463Z,41.97
2023-09-30T09:06:25.924Z,42.33
2023-09-30T09:08:53.725Z,43.54
2023-09-30T09:11:20.660Z,43.89
2023-09-30T09:13:50.758Z,44.04
2023-09-30T09:16:21.291Z,44.11
2023-09-30T09:18:48.975Z,44.63
2023-09-30T09:21:19.164Z,44.72
2023-09-30T09:23:48.120Z,44.70
2023-09-30T09:26:36.806Z,44.93
2023-09-30T09:29:05.897Z,45.30
2023-09-30T09:31:35.818Z,46.20
2023-09-30T09:34:04.625Z,44.85
2023-09-30T09:36:45.866Z,45.40
2023-09-30T09:39:17.543Z,46.06
2023-09-30T09:41:55.652Z,46.90
2023-09-30T09:44:23.979Z,47.22
2023-09-30T09:46:51.660Z,47.63
2023-09-30T09:49:19.896Z,48.65
2023-09-30T09:51:49.058Z,48.74
2023-09-30T09:54:16.920Z,47.54
2023-09-30T09:56:47.194Z,47.41
2023-09-30T09:59:15.035Z,43.57
2023-09-30T10:01:43.107Z,40.78
2023-09-30T10:04:12.333Z,38.34
2023-09-30T10:06:42.400Z,35.91
2023-09-30T10:09:12.059Z,34.71
2023-09-30T10:11:41.087Z,33.33
2023-09-30T10:14:14.156Z,33.90
2023-09-30T10:16:43.750Z,34.63
2023-09-30T10:19:13.541Z,36.51
2023-09-30T10:21:40.865Z,35.88
2023-09-30T10:24:26.024Z,34.92
2023-09-30T10:27:32.706Z,33.44
2023-09-30T10:30:03.647Z,32.93
2023-09-30T10:32:53.968Z,32.18
2023-09-30T10:35:21.388Z,31.50
2023-09-30T10:37:49.784Z,31.06
2023-09-30T10:40:30.486Z,31.04
2023-09-30T10:42:58.148Z,34.28
2023-09-30T10:45:44.477Z,38.08
2023-09-30T10:48:26.681Z,40.55
2023-09-30T10:50:56.615Z,43.20
2023-09-30T10:53:23.950Z,43.42
2023-09-30T10:56:08.944Z,43.82
2023-09-30T10:58:42.157Z,44.88
2023-09-30T11:01:09.367Z,45.76
2023-09-30T11:03:36.582Z,45.65
2023-09-30T11:06:12.410Z,45.80
2023-09-30T11:08:44.291Z,44.36
2023-09-30T11:11:11.023Z,45.04
2023-09-30T11:13:37.952Z,45.93
2023-09-30T11:16:05.945Z,46.62
2023-09-30T11:18:33.508Z,46.79
2023-09-30T11:21:09.006Z,47.33
2023-09-30T11:23:36.514Z,47.05
2023-09-30T11:26:03.918Z,45.58
2023-09-30T11:28:41.664Z,46.15
2023-09-30T11:31:11.849Z,45.19
2023-09-30T11:33:54.938Z,43.84
2023-09-30T11:36:25.033Z,43.59
2023-09-30T11:38:56.014Z,44.59
2023-09-30T11:41:23.836Z,45.30
2023-09-30T11:44:06.318Z,45.86
2023-09-30T11:46:34.643Z,45.18
2023-09-30T11:49:09.801Z,45.35
2023-09-30T11:51:48.648Z,44.46
2023-09-30T11:54:15.618Z,44.73
2023-09-30T11:56:42.366Z,43.22
2023-09-30T11:59:11.608Z,41.53
2023-09-30T12:01:38.727Z,38.98
2023-09-30T12:04:06.046Z,37.59
2023-09-30T12:06:35.281Z,36.47
2023-09-30T12:09:03.941Z,36.09
2023-09-30T12:11:30.741Z,36.93
2023-09-30T12:13:57.536Z,37.85
2023-09-30T12:16:25.152Z,37.44
2023-09-30T12:18:51.980Z,38.18
2023-09-30T12:21:21.872Z,37.60
2023-09-30T12:23:49.638Z,37.00
2023-09-30T12:26:20.200Z,36.17
2023-09-30T12:28:48.255Z,34.61
2023-09-30T12:31:15.237Z,34.31
2023-09-30T12:33:42.321Z,33.57
2023-09-30T12:36:09.215Z,33.11
2023-09-30T12:38:35.947Z,32.74
2023-09-30T12:41:02.638Z,32.59
2023-09-30T12:43:29.384Z,32.49
2023-09-30T12:45:56.289Z,32.45
2023-09-30T12:48:23.112Z,32.40
2023-09-30T12:50:49.828Z,32.29
2023-09-30T12:53:16.525Z,32.42
2023-09-30T12:55:43.353Z,32.38
2023-09-30T12:58:10.203Z,31.79
2023-09-30T13:00:37.416Z,31.85
2023-09-30T13:03:04.875Z,31.78
2023-09-30T13:05:31.895Z,31.78
2023-09-30T13:07:58.897Z,31.80
2023-09-30T13:10:26.739Z,31.79
2023-09-30T13:12:54.996Z,31.54
2023-09-30T13:15:22.730Z,31.41
2023-09-30T13:17:49.447Z,31.22
2023-09-30T13:20:16.193Z,30.83
2023-09-30T13:22:42.913Z,30.60
2023-09-30T13:25:11.835Z,30.93
2023-09-30T13:27:39.757Z,30.48
2023-09-30T13:30:08.747Z,30.59
2023-09-30T13:32:39.290Z,30.42
2023-09-30T13:35:07.361Z,30.35
2023-09-30T13:37:34.617Z,30.29
2023-09-30T13:40:03.104Z,29.61
2023-09-30T13:42:30.032Z,29.59
2023-09-30T13:44:58.630Z,29.80
2023-09-30T13:47:26.402Z,29.48
2023-09-30T13:49:53.656Z,29.55
2023-09-30T13:52:20.367Z,29.47
2023-09-30T13:54:47.586Z,29.49
2023-09-30T13:57:15.371Z,29.64
2023-09-30T13:59:43.402Z,29.34
2023-09-30T14:02:10.293Z,29.31
2023-09-30T14:04:37.136Z,29.14
2023-09-30T14:07:04.373Z,29.15
2023-09-30T14:09:36.199Z,29.19
2023-09-30T14:12:05.500Z,28.99
2023-09-30T14:14:34.445Z,29.05
2023-09-30T14:17:01.581Z,29.11
2023-09-30T14:19:29.792Z,29.04
2023-09-30T14:21:57.697Z,28.95
2023-09-30T14:24:24.542Z,28.92
2023-09-30T14:26:51.228Z,28.83
2023-09-30T14:29:18.079Z,28.85
2023-09-30T14:31:44.860Z,28.84
2023-09-30T14:34:11.764Z,28.88
2023-09-30T14:36:38.634Z,28.58
2023-09-30T14:39:14.314Z,28.49
2023-09-30T14:41:41.996Z,28.41
2023-09-30T14:44:09.005Z,28.18
2023-09-30T14:46:37.016Z,28.06
2023-09-30T14:49:03.806Z,28.00
2023-09-30T14:51:30.608Z,28.07
2023-09-30T14:53:57.288Z,28.15
2023-09-30T14:56:24.174Z,28.03
2023-09-30T14:58:50.911Z,27.90
2023-09-30T15:01:18.654Z,27.92
2023-09-30T15:03:45.568Z,27.92
2023-09-30T15:06:12.473Z,27.87
2023-09-30T15:08:39.989Z,27.77
2023-09-30T15:11:07.454Z,27.76
2023-09-30T15:13:34.171Z,27.67
2023-09-30T15:16:00.998Z,27.47
2023-09-30T15:18:27.920Z,27.53
2023-09-30T15:20:54.587Z,27.39
2023-09-30T15:23:21.654Z,27.42
2023-09-30T15:25:48.494Z,27.40
2023-09-30T15:28:15.249Z,27.24
2023-09-30T15:30:42.165Z,27.13
2023-09-30T15:33:09.659Z,27.08
2023-09-30T15:35:36.581Z,27.06
2023-09-30T15:38:04.637Z,27.10
2023-09-30T15:40:33.300Z,27.05
2023-09-30T15:43:00.308Z,26.96
2023-09-30T15:45:27.061Z,26.99
2023-09-30T15:47:53.839Z,27.07
2023-09-30T15:50:21.047Z,26.96
2023-09-30T15:52:47.885Z,26.94
2023-09-30T15:55:14.787Z,27.00
2023-09-30T15:57:43.734Z,26.93
2023-09-30T16:00:11.666Z,26.92
2023-09-30T16:02:38.634Z,26.92
2023-09-30T16:05:05.800Z,26.71
2023-09-30T16:07:32.650Z,26.62
2023-09-30T16:09:59.433Z,26.41
2023-09-30T16:12:26.175Z,26.24
2023-09-30T16:14:52.862Z,25.99
2023-09-30T16:17:20.940Z,25.89
2023-09-30T16:19:47.698Z,25.70
2023-09-30T16:22:14.562Z,25.60
2023-09-30T16:24:41.269Z,25.57
2023-09-30T16:27:07.996Z,25.54
2023-09-30T16:29:34.700Z,25.42
2023-09-30T16:32:01.473Z,25.24
2023-09-30T16:34:29.007Z,25.03
2023-09-30T16:36:55.804Z,25.09
2023-09-30T16:39:22.568Z,24.86
2023-09-30T16:41:49.239Z,24.64
2023-09-30T16:44:16.295Z,24.50
2023-09-30T16:46:43.012Z,24.35
2023-09-30T16:49:10.130Z,24.19
2023-09-30T16:51:36.964Z,24.06
2023-09-30T16:54:03.792Z,23.95
2023-09-30T16:56:30.508Z,23.75
2023-09-30T16:58:58.131Z,23.73
2023-09-30T17:01:25.016Z,23.71
2023-09-30T17:03:51.888Z,23.45
2023-09-30T17:06:18.599Z,23.34
2023-09-30T17:08:45.355Z,23.21
2023-09-30T17:11:12.132Z,23.17
2023-09-30T17:13:38.891Z,23.06
2023-09-30T17:16:07.203Z,22.97
2023-09-30T17:18:34.973Z,22.91
2023-09-30T17:21:02.054Z,22.92
2023-09-30T17:23:28.791Z,22.74
2023-09-30T17:26:01.321Z,22.73
2023-09-30T17:28:28.117Z,22.49
2023-09-30T17:30:54.904Z,22.22
2023-09-30T17:33:22.001Z,22.20
2023-09-30T17:35:48.703Z,22.11
2023-09-30T17:38:15.467Z,22.06
2023-09-30T17:40:42.225Z,21.99
2023-09-30T17:43:09.092Z,21.88
2023-09-30T17:45:36.037Z,21.60
2023-09-30T17:48:02.901Z,21.85
2023-09-30T17:50:29.681Z,21.81
2023-09-30T17:52:56.365Z,21.57
2023-09-30T17:55:23.253Z,21.57
2023-09-30T17:57:50.056Z,21.49
2023-09-30T18:00:18.585Z,21.42
2023-09-30T18:02:45.907Z,21.33
2023-09-30T18:05:12.728Z,21.24
2023-09-30T18:07:39.495Z,21.21
2023-09-30T18:10:06.850Z,21.16
2023-09-30T18:12:33.764Z,21.08
2023-09-30T18:15:00.641Z,21.04
2023-09-30T18:17:27.599Z,20.91
2023-09-30T18:19:54.611Z,20.78
2023-09-30T18:22:21.616Z,20.70
2023-09-30T18:24:48.477Z,20.68
2023-09-30T18:27:15.281Z,20.71
2023-09-30T18:29:44.237Z,20.75
2023-09-30T18:32:11.154Z,20.57
2023-09-30T18:34:37.932Z,20.58
2023-09-30T18:37:04.696Z,20.52
2023-09-30T18:39:32.639Z,20.58
2023-09-30T18:41:59.365Z,20.44
2023-09-30T18:44:26.264Z,20.26
2023-09-30T18:46:53.417Z,20.15
2023-09-30T18:49:20.303Z,20.21
2023-09-30T18:51:47.284Z,20.19
2023-09-30T18:54:14.252Z,20.16
2023-09-30T18:56:41.040Z,20.18
2023-09-30T18:59:10.053Z,20.22
2023-09-30T19:01:38.186Z,20.21
2023-09-30T19:04:06.296Z,20.12
2023-09-30T19:06:33.274Z,20.04
2023-09-30T19:09:00.005Z,19.95
2023-09-30T19:11:27.379Z,19.89
2023-09-30T19:13:54.132Z,19.87
2023-09-30T19:16:21.046Z,19.73
2023-09-30T19:18:48.025Z,19.72
2023-09-30T19:21:15.650Z,19.77
2023-09-30T19:23:42.473Z,19.72
2023-09-30T19:26:15.883Z,19.61
2023-09-30T19:28:44.014Z,19.50
2023-09-30T19:31:14.832Z,19.35
2023-09-30T19:33:43.845Z,19.33
2023-09-30T19:36:12.128Z,19.27
2023-09-30T19:38:39.975Z,19.32
2023-09-30T19:41:13.620Z,19.40
2023-09-30T19:43:41.605Z,19.37
2023-09-30T19:46:08.536Z,19.25
2023-09-30T19:48:35.316Z,19.26
2023-09-30T19:51:01.994Z,19.20
2023-09-30T19:53:28.872Z,19.16
2023-09-30T19:55:55.588Z,19.29
2023-09-30T19:58:22.434Z,19.23
2023-09-30T20:00:49.505Z,19.21
2023-09-30T20:03:16.430Z,19.21
2023-09-30T20:05:43.366Z,19.15
2023-09-30T20:08:10.262Z,19.06
2023-09-30T20:10:38.168Z,18.99
2023-09-30T20:13:10.580Z,18.90
2023-09-30T20:15:37.511Z,18.78
2023-09-30T20:18:04.661Z,18.69
2023-09-30T20:20:31.829Z,18.60
2023-09-30T20:22:58.696Z,18.63
2023-09-30T20:25:26.387Z,18.66
2023-09-30T20:27:53.285Z,18.65
2023-09-30T20:30:20.034Z,18.50
2023-09-30T20:32:47.525Z,18.33
2023-09-30T20:35:14.413Z,18.36
2023-09-30T20:37:41.208Z,18.42
2023-09-30T20:40:12.122Z,18.42
2023-09-30T20:42:39.078Z,18.32
2023-09-30T20:45:06.698Z,18.24
2023-09-30T20:47:34.291Z,18.18
2023-09-30T20:50:01.048Z,18.13
2023-09-30T20:52:28.710Z,18.12
2023-09-30T20:54:55.512Z,18.09
2023-09-30T20:57:22.220Z,18.21
2023-09-30T20:59:48.912Z,18.13
2023-09-30T21:02:15.679Z,18.02
2023-09-30T21:04:42.595Z,18.01
2023-09-30T21:07:11.680Z,17.99
2023-09-30T21:09:38.573Z,17.96
2023-09-30T21:12:05.623Z,17.87
2023-09-30T21:14:32.400Z,17.92
2023-09-30T21:16:59.688Z,17.95
2023-09-30T21:19:26.462Z,17.77
2023-09-30T21:21:54.049Z,17.81
2023-09-30T21:24:21.225Z,17.70
2023-09-30T21:26:47.927Z,17.64
2023-09-30T21:29:14.668Z,17.70
2023-09-30T21:31:42.779Z,17.71
2023-09-30T21:34:09.856Z,17.71
2023-09-30T21:36:36.722Z,17.75
2023-09-30T21:39:06.460Z,17.81
2023-09-30T21:41:34.562Z,17.81
2023-09-30T21:44:02.597Z,17.69
2023-09-30T21:46:29.495Z,17.55
2023-09-30T21:48:56.955Z,17.50
2023-09-30T21:51:23.988Z,17.46
2023-09-30T21:53:50.758Z,17.41
2023-09-30T21:56:17.534Z,17.44
2023-09-30T21:58:44.395Z,17.51
2023-09-30T22:01:15.243Z,17.45
2023-09-30T22:03:47.187Z,17.32
2023-09-30T22:06:14.252Z,17.36
2023-09-30T22:08:41.149Z,17.31
2023-09-30T22:11:08.448Z,17.32
2023-09-30T22:13:36.414Z,17.25
2023-09-30T22:16:03.307Z,17.22
2023-09-30T22:18:30.236Z,17.08
2023-09-30T22:20:57.176Z,17.03
2023-09-30T22:23:24.188Z,17.02
2023-09-30T22:25:51.121Z,17.09
2023-09-30T22:28:18.056Z,17.00
2023-09-30T22:30:47.388Z,16.92
2023-09-30T22:33:14.412Z,16.85
2023-09-30T22:35:42.143Z,16.87
2023-09-30T22:38:09.440Z,16.83
2023-09-30T22:40:36.233Z,16.87
2023-09-30T22:43:06.135Z,16.82
2023-09-30T22:45:34.627Z,16.81
2023-09-30T22:48:01.459Z,16.81
2023-09-30T22:50:28.344Z,16.84
2023-09-30T22:52:56.455Z,16.74
2023-09-30T22:55:24.644Z,16.70
2023-09-30T22:57:54.948Z,16.70
2023-09-30T23:00:23.095Z,16.69
2023-09-30T23:02:50.137Z,16.70
2023-09-30T23:05:18.441Z,16.81
2023-09-30T23:07:46.199Z,16.92
2023-09-30T23:10:18.197Z,16.85
2023-09-30T23:12:45.198Z,16.75
2023-09-30T23:15:15.223Z,16.72
2023-09-30T23:17:45.434Z,16.71
2023-09-30T23:20:21.335Z,16.75
2023-09-30T23:22:52.491Z,16.71
2023-09-30T23:25:27.998Z,16.70
2023-09-30T23:27:56.731Z,16.69
2023-09-30T23:30:25.688Z,16.65
2023-09-30T23:32:54.482Z,16.68
2023-09-30T23:35:22.271Z,16.72
2023-09-30T23:37:54.310Z,16.73
2023-09-30T23:40:24.119Z,16.58
2023-09-30T23:42:54.591Z,16.51
2023-09-30T23:45:21.532Z,16.52
2023-09-30T23:47:52.007Z,16.55
2023-09-30T23:50:20.704Z,16.61
2023-09-30T23:52:52.835Z,16.60
2023-09-30T23:55:23.352Z,16.57
2023-09-30T23:57:50.423Z,16.53
